Time;durP1;ratioP1;P1;durP2;ratioP2;P2;SDS_P1;SDS_P2;PMS_P1;PMS_P2;Temp;Humidity;BMP_temperature;BMP_pressure;BME280_temperature;BME280_humidity;BME280_pressure;Samples;Min_cycle;Max_cycle;Signal;HPM_P1;HPM_P2
2022/01/15 00:01:08;;;;;;;26.17;14.57;;;2.40;89.70;;;;;;4923275;29;20463;-49
2022/01/15 00:03:35;;;;;;;28.07;13.40;;;2.50;89.70;;;;;;4924293;29;20468;-49
2022/01/15 00:06:02;;;;;;;26.03;14.80;;;2.40;89.60;;;;;;4927110;29;20460;-49
2022/01/15 00:08:29;;;;;;;28.23;13.60;;;2.40;89.80;;;;;;4926863;29;20492;-48
2022/01/15 00:10:55;;;;;;;27.23;14.80;;;2.40;89.80;;;;;;4926126;29;20930;-49
2022/01/15 00:13:28;;;;;;;26.60;13.40;;;2.40;89.70;;;;;;4925583;29;20456;-49
2022/01/15 00:16:34;;;;;;;22.80;12.50;;;2.40;89.50;;;;;;4924259;29;20452;-50
2022/01/15 00:19:09;;;;;;;21.60;12.10;;;2.40;89.80;;;;;;4906852;29;20553;-50
2022/01/15 00:21:36;;;;;;;22.67;11.83;;;2.50;89.50;;;;;;4926570;29;20460;-49
2022/01/15 00:24:03;;;;;;;27.80;13.57;;;2.50;89.40;;;;;;4923706;29;20903;-50
2022/01/15 00:26:30;;;;;;;22.80;12.23;;;2.50;89.50;;;;;;4915985;29;20452;-49
2022/01/15 00:28:57;;;;;;;21.33;11.83;;;2.40;89.60;;;;;;4924352;29;20500;-49
2022/01/15 00:31:24;;;;;;;20.90;11.37;;;2.40;89.60;;;;;;4929868;29;20453;-49
2022/01/15 00:33:51;;;;;;;25.00;12.10;;;2.40;89.60;;;;;;4923874;29;20514;-50
2022/01/15 00:36:18;;;;;;;23.77;12.67;;;2.40;89.70;;;;;;4926987;29;20453;-50
2022/01/15 00:38:46;;;;;;;22.87;10.20;;;2.40;89.70;;;;;;4922205;29;20451;-49
2022/01/15 00:41:13;;;;;;;22.30;11.63;;;2.50;89.30;;;;;;4928753;29;20460;-49
2022/01/15 00:43:41;;;;;;;22.10;11.27;;;2.50;89.10;;;;;;4920484;29;20484;-50
2022/01/15 00:46:08;;;;;;;18.80;10.30;;;2.50;89.20;;;;;;4922724;29;20551;-50
2022/01/15 00:48:35;;;;;;;21.10;11.37;;;2.50;89.60;;;;;;4922660;29;20489;-49
2022/01/15 00:51:01;;;;;;;17.83;11.17;;;2.50;89.60;;;;;;4925341;29;20953;-50
2022/01/15 00:53:28;;;;;;;24.40;12.27;;;2.40;89.70;;;;;;4915118;29;20460;-50
2022/01/15 00:55:55;;;;;;;23.43;11.77;;;2.50;89.60;;;;;;4923587;29;20456;-50
2022/01/15 00:58:22;;;;;;;24.27;12.63;;;2.50;89.70;;;;;;4927129;29;20460;-49
2022/01/15 01:00:49;;;;;;;17.70;11.53;;;2.50;89.70;;;;;;4920979;29;20490;-50
2022/01/15 01:03:16;;;;;;;23.00;10.60;;;2.50;89.50;;;;;;4926782;29;20460;-49
2022/01/15 01:05:43;;;;;;;22.30;11.50;;;2.50;89.60;;;;;;4927303;29;20459;-50
2022/01/15 01:08:09;;;;;;;22.63;11.50;;;2.50;89.50;;;;;;4926204;29;20495;-49
2022/01/15 01:11:12;;;;;;;23.00;11.67;;;2.50;89.70;;;;;;4927276;29;20461;-50
2022/01/15 01:20:03;;;;;;;23.90;11.23;;;2.50;89.80;;;;;;4923190;29;20996;-48
2022/01/15 01:24:46;;;;;;;20.13;10.77;;;2.60;89.70;;;;;;4927236;29;20551;-50
2022/01/15 01:27:22;;;;;;;23.20;12.43;;;2.50;89.80;;;;;;4920632;29;20564;-49
2022/01/15 01:30:43;;;;;;;19.27;10.57;;;2.50;89.80;;;;;;4908926;29;20491;-49
2022/01/15 01:35:45;;;;;;;20.37;11.03;;;2.50;89.80;;;;;;4885487;29;20460;-50
2022/01/15 01:38:27;;;;;;;17.37;11.13;;;2.50;89.70;;;;;;4886385;29;20484;-50
2022/01/15 01:40:57;;;;;;;24.00;11.30;;;2.50;89.70;;;;;;4913823;29;20469;-50
2022/01/15 01:46:15;;;;;;;23.57;11.83;;;2.50;89.80;;;;;;4924831;29;20543;-50
2022/01/15 01:48:38;;;;;;;21.47;11.90;;;2.50;89.80;;;;;;4921630;29;20572;-51
2022/01/15 01:51:07;;;;;;;18.57;10.43;;;2.50;89.80;;;;;;4924877;29;20456;-50
2022/01/15 01:53:39;;;;;;;20.10;9.73;;;2.50;89.80;;;;;;4919053;29;20457;-51
2022/01/15 01:56:06;;;;;;;17.70;11.30;;;2.50;89.80;;;;;;4922924;29;20466;-51
2022/01/15 01:58:32;;;;;;;20.73;10.10;;;2.50;89.80;;;;;;4924655;29;20469;-50
2022/01/15 02:00:59;;;;;;;19.27;9.60;;;2.50;89.80;;;;;;4924733;29;21042;-51
2022/01/15 02:03:26;;;;;;;23.13;11.40;;;2.50;89.80;;;;;;4922579;29;20466;-51
2022/01/15 02:05:53;;;;;;;19.47;10.57;;;2.50;89.80;;;;;;4922387;29;20831;-50
2022/01/15 02:08:20;;;;;;;17.70;9.63;;;2.50;89.80;;;;;;4915061;29;20492;-50
2022/01/15 02:10:47;;;;;;;18.53;10.27;;;2.50;89.80;;;;;;4925060;29;20548;-49
2022/01/15 02:13:14;;;;;;;22.60;10.00;;;2.50;89.80;;;;;;4928783;29;20463;-49
2022/01/15 02:15:41;;;;;;;21.20;11.00;;;2.50;89.80;;;;;;4926800;29;20484;-49
2022/01/15 02:18:08;;;;;;;23.93;10.43;;;2.50;89.80;;;;;;4932266;29;20468;-49
2022/01/15 02:20:59;;;;;;;19.80;10.10;;;2.60;89.80;;;;;;4932348;29;20987;-51
2022/01/15 02:23:34;;;;;;;17.40;9.90;;;2.60;89.80;;;;;;4933757;29;20491;-50
2022/01/15 02:26:04;;;;;;;21.37;10.77;;;2.70;89.70;;;;;;4919457;29;20463;-49
2022/01/15 02:28:38;;;;;;;26.67;11.30;;;2.60;89.50;;;;;;4929535;29;20495;-49
2022/01/15 02:31:06;;;;;;;22.30;11.37;;;2.60;89.80;;;;;;4925028;29;20880;-50
2022/01/15 02:33:34;;;;;;;22.00;10.10;;;2.60;89.80;;;;;;4931050;29;20539;-49
2022/01/15 02:36:05;;;;;;;21.33;9.97;;;2.60;89.80;;;;;;4932131;29;20452;-50
2022/01/15 02:38:32;;;;;;;23.73;12.00;;;2.60;89.80;;;;;;4929699;29;20464;-49
2022/01/15 02:40:59;;;;;;;24.93;12.13;;;2.60;89.80;;;;;;4929717;29;20979;-50
2022/01/15 02:43:31;;;;;;;21.37;11.40;;;2.60;89.80;;;;;;4912920;29;20499;-49
2022/01/15 02:48:53;;;;;;;21.83;12.17;;;2.60;89.80;;;;;;4930067;29;20598;-49
2022/01/15 02:51:29;;;;;;;22.97;12.03;;;2.60;89.80;;;;;;4933216;29;21003;-50
2022/01/15 02:53:56;;;;;;;24.83;14.63;;;2.60;89.80;;;;;;4934197;29;20448;-50
2022/01/15 02:56:28;;;;;;;24.90;13.23;;;2.60;89.80;;;;;;4930188;29;20459;-49
2022/01/15 02:58:56;;;;;;;23.67;12.60;;;2.70;89.80;;;;;;4917339;29;20983;-50
2022/01/15 03:01:23;;;;;;;22.23;12.03;;;2.60;89.80;;;;;;4928971;29;20562;-50
2022/01/15 03:03:51;;;;;;;27.07;11.87;;;2.70;89.80;;;;;;4917966;29;20528;-50
2022/01/15 03:06:19;;;;;;;31.60;14.63;;;2.70;89.80;;;;;;4928770;29;20893;-50
2022/01/15 03:08:48;;;;;;;27.27;14.47;;;2.60;89.80;;;;;;4932260;29;20479;-50
2022/01/15 03:11:15;;;;;;;29.13;14.40;;;2.70;89.80;;;;;;4928883;29;20458;-50
2022/01/15 03:13:43;;;;;;;26.03;12.00;;;2.70;89.80;;;;;;4929047;29;20455;-49
2022/01/15 03:16:14;;;;;;;25.90;13.47;;;2.70;89.80;;;;;;4928337;29;20462;-50
2022/01/15 03:18:41;;;;;;;26.03;13.37;;;2.70;89.80;;;;;;4917178;29;20886;-51
2022/01/15 03:21:08;;;;;;;32.80;13.80;;;2.70;89.80;;;;;;4915424;29;21013;-50
2022/01/15 03:23:36;;;;;;;25.27;12.40;;;2.70;89.80;;;;;;4928193;29;20502;-50
2022/01/15 03:26:04;;;;;;;26.80;13.70;;;2.70;89.80;;;;;;4923907;29;20464;-51
2022/01/15 03:28:31;;;;;;;29.20;14.80;;;2.70;89.80;;;;;;4930798;29;20620;-50
2022/01/15 03:30:58;;;;;;;28.87;15.37;;;2.70;89.80;;;;;;4912030;29;20464;-50
2022/01/15 03:33:25;;;;;;;25.90;16.67;;;2.80;89.80;;;;;;4912830;29;20897;-50
2022/01/15 03:35:52;;;;;;;26.93;13.30;;;2.80;89.80;;;;;;4925388;29;20960;-49
2022/01/15 03:38:19;;;;;;;28.23;15.47;;;2.80;89.80;;;;;;4927266;29;20453;-49
2022/01/15 03:40:46;;;;;;;33.30;14.93;;;2.80;89.80;;;;;;4913269;29;20460;-50
2022/01/15 03:43:12;;;;;;;33.07;14.70;;;2.80;89.80;;;;;;4914304;29;20546;-50
2022/01/15 03:45:40;;;;;;;31.93;15.67;;;2.80;89.80;;;;;;4923225;29;21034;-50
2022/01/15 03:48:07;;;;;;;28.37;14.40;;;2.80;89.80;;;;;;4925977;29;20452;-50
2022/01/15 03:50:34;;;;;;;27.00;14.87;;;2.80;89.80;;;;;;4902321;29;21006;-50
2022/01/15 03:53:00;;;;;;;23.93;14.47;;;2.80;89.80;;;;;;4924733;29;20465;-50
2022/01/15 03:55:28;;;;;;;30.77;14.37;;;2.80;89.80;;;;;;4924962;29;20444;-48
2022/01/15 03:57:54;;;;;;;32.90;15.47;;;2.80;89.80;;;;;;4910949;29;20515;-48
2022/01/15 04:00:24;;;;;;;29.53;14.47;;;2.90;89.80;;;;;;4924672;29;20464;-51
2022/01/15 04:02:53;;;;;;;25.00;14.67;;;2.90;89.80;;;;;;4911376;29;20483;-52
2022/01/15 04:05:21;;;;;;;28.87;14.10;;;2.90;89.80;;;;;;4924184;29;20908;-52
2022/01/15 04:07:48;;;;;;;27.20;13.60;;;2.90;89.80;;;;;;4926220;29;20968;-52
2022/01/15 04:10:15;;;;;;;29.23;14.97;;;2.90;89.80;;;;;;4920134;29;20502;-52
2022/01/15 04:12:43;;;;;;;24.40;12.07;;;2.90;89.80;;;;;;4928551;29;20461;-52
2022/01/15 04:15:13;;;;;;;26.50;13.33;;;2.90;89.80;;;;;;4925202;29;20585;-51
2022/01/15 04:17:45;;;;;;;32.73;14.00;;;2.90;89.80;;;;;;4927014;29;21159;-51
2022/01/15 04:20:16;;;;;;;30.47;14.00;;;2.90;89.80;;;;;;4923382;29;20832;-52
2022/01/15 04:22:42;;;;;;;28.73;14.27;;;2.90;89.80;;;;;;4924500;29;20486;-52
2022/01/15 04:25:10;;;;;;;37.27;15.57;;;2.90;89.80;;;;;;4921961;29;20998;-52
2022/01/15 04:27:39;;;;;;;27.13;14.50;;;2.90;89.80;;;;;;4926225;29;20488;-51
2022/01/15 04:30:08;;;;;;;30.10;14.00;;;2.90;89.80;;;;;;4928465;29;20488;-53
2022/01/15 04:32:35;;;;;;;25.50;13.60;;;3.00;89.80;;;;;;4924792;29;20536;-52
2022/01/15 04:35:02;;;;;;;26.43;12.70;;;3.00;89.80;;;;;;4925906;29;20546;-52
2022/01/15 04:37:51;;;;;;;27.90;13.37;;;3.00;89.80;;;;;;4910197;29;20457;-52
2022/01/15 04:40:18;;;;;;;28.30;13.43;;;2.90;89.80;;;;;;4923980;29;20954;-52
2022/01/15 04:42:44;;;;;;;31.07;15.47;;;3.00;89.80;;;;;;4909169;29;20551;-52
2022/01/15 04:45:12;;;;;;;26.73;13.70;;;3.00;89.80;;;;;;4925726;29;20985;-51
2022/01/15 04:47:40;;;;;;;29.90;14.63;;;2.90;89.80;;;;;;4929438;29;20465;-51
2022/01/15 04:50:10;;;;;;;35.60;16.67;;;3.00;89.80;;;;;;4926862;29;21027;-51
2022/01/15 04:52:38;;;;;;;28.73;13.67;;;3.00;89.80;;;;;;4909676;29;20472;-52
2022/01/15 04:55:07;;;;;;;27.33;12.93;;;2.90;89.80;;;;;;4923262;29;20456;-52
2022/01/15 04:57:34;;;;;;;29.37;13.63;;;2.90;89.80;;;;;;4922716;29;20453;-52
2022/01/15 05:00:03;;;;;;;32.77;14.17;;;3.00;89.80;;;;;;4924563;29;21103;-52
2022/01/15 05:02:30;;;;;;;25.53;13.60;;;2.90;89.80;;;;;;4923940;29;20466;-52
2022/01/15 05:04:56;;;;;;;26.97;13.67;;;3.00;89.80;;;;;;4927443;29;20467;-52
2022/01/15 05:07:23;;;;;;;23.50;12.03;;;2.90;89.80;;;;;;4925997;29;20687;-52
2022/01/15 05:09:50;;;;;;;23.83;12.60;;;3.00;89.80;;;;;;4921538;29;20852;-52
2022/01/15 05:12:28;;;;;;;26.93;12.33;;;3.00;89.80;;;;;;4907860;29;20456;-52
2022/01/15 05:14:55;;;;;;;32.50;14.53;;;3.00;89.80;;;;;;4924779;29;20457;-51
2022/01/15 05:17:22;;;;;;;29.77;13.57;;;3.00;89.80;;;;;;4911087;29;20489;-51
2022/01/15 05:19:50;;;;;;;23.53;13.47;;;3.00;89.80;;;;;;4926427;29;20888;-52
2022/01/15 05:22:17;;;;;;;30.47;12.60;;;3.00;89.80;;;;;;4924295;29;20476;-53
2022/01/15 05:24:44;;;;;;;24.27;13.63;;;3.00;89.80;;;;;;4921091;29;20551;-52
2022/01/15 05:27:11;;;;;;;33.50;14.70;;;3.10;89.80;;;;;;4922205;29;20490;-51
2022/01/15 05:29:38;;;;;;;25.13;11.93;;;3.10;89.80;;;;;;4909916;29;21012;-52
2022/01/15 05:32:05;;;;;;;21.87;12.53;;;3.10;89.80;;;;;;4921851;29;21021;-52
2022/01/15 05:34:37;;;;;;;26.40;12.87;;;3.10;89.80;;;;;;4911139;29;20456;-51
2022/01/15 05:37:05;;;;;;;30.13;14.40;;;3.10;89.80;;;;;;4923559;29;20869;-52
2022/01/15 05:39:31;;;;;;;25.70;12.90;;;3.10;89.80;;;;;;4922534;29;20460;-51
2022/01/15 05:41:58;;;;;;;26.27;12.30;;;3.10;89.80;;;;;;4922410;29;20467;-51
2022/01/15 05:44:25;;;;;;;24.67;11.70;;;3.10;89.80;;;;;;4922645;29;20460;-51
2022/01/15 05:46:52;;;;;;;24.73;14.10;;;3.20;89.80;;;;;;4919096;29;20462;-51
2022/01/15 05:49:19;;;;;;;23.27;12.90;;;3.10;89.80;;;;;;4921186;29;20484;-51
2022/01/15 05:51:46;;;;;;;26.43;12.60;;;3.10;89.80;;;;;;4921227;29;20546;-51
2022/01/15 05:54:13;;;;;;;24.87;12.03;;;3.10;89.80;;;;;;4923118;29;20819;-51
2022/01/15 05:56:40;;;;;;;21.20;12.20;;;3.10;89.80;;;;;;4921314;29;20471;-52
2022/01/15 05:59:08;;;;;;;24.90;12.77;;;3.10;89.80;;;;;;4922284;29;20540;-53
2022/01/15 06:01:35;;;;;;;21.50;11.00;;;3.10;89.80;;;;;;4931125;29;20466;-51
2022/01/15 06:04:03;;;;;;;22.00;12.20;;;3.10;89.80;;;;;;4909495;29;20848;-52
2022/01/15 06:06:29;;;;;;;17.23;10.77;;;3.10;89.80;;;;;;4925598;29;20457;-52
2022/01/15 06:08:57;;;;;;;20.53;10.60;;;3.10;89.80;;;;;;4910974;29;21037;-51
2022/01/15 06:11:24;;;;;;;20.67;11.83;;;3.20;89.80;;;;;;4924980;29;20946;-52
2022/01/15 06:13:51;;;;;;;27.30;11.80;;;3.20;89.80;;;;;;4910188;29;20949;-51
2022/01/15 06:16:18;;;;;;;24.63;11.03;;;3.20;89.80;;;;;;4921546;29;20491;-51
2022/01/15 06:18:46;;;;;;;16.47;10.73;;;3.20;89.80;;;;;;4913095;29;20959;-51
2022/01/15 06:21:13;;;;;;;18.43;10.00;;;3.20;89.80;;;;;;4908484;29;20949;-52
2022/01/15 06:23:40;;;;;;;20.47;11.20;;;3.20;89.80;;;;;;4925452;29;21016;-52
2022/01/15 06:26:06;;;;;;;22.87;11.23;;;3.20;89.80;;;;;;4908711;29;20539;-52
2022/01/15 06:28:33;;;;;;;21.03;10.70;;;3.20;89.80;;;;;;4924883;29;20459;-52
2022/01/15 06:31:00;;;;;;;17.77;11.40;;;3.20;89.80;;;;;;4921426;29;20856;-51
2022/01/15 06:33:31;;;;;;;14.63;9.77;;;3.20;89.80;;;;;;4924350;29;20465;-52
2022/01/15 06:35:58;;;;;;;21.60;11.00;;;3.30;89.80;;;;;;4926275;29;20452;-52
2022/01/15 06:38:25;;;;;;;15.90;9.90;;;3.30;89.80;;;;;;4913957;29;20451;-51
2022/01/15 06:40:52;;;;;;;16.13;8.73;;;3.30;89.80;;;;;;4927776;29;20466;-52
2022/01/15 06:43:19;;;;;;;16.27;8.77;;;3.30;89.80;;;;;;4909113;29;20453;-52
2022/01/15 06:45:46;;;;;;;18.73;10.13;;;3.30;89.80;;;;;;4905425;29;20464;-51
2022/01/15 06:48:13;;;;;;;15.80;9.27;;;3.20;89.80;;;;;;4910307;29;20463;-51
2022/01/15 06:50:40;;;;;;;13.60;9.07;;;3.30;89.80;;;;;;4922740;29;20498;-52
2022/01/15 06:53:07;;;;;;;12.00;8.77;;;3.30;89.80;;;;;;4922928;29;20457;-52
2022/01/15 06:55:34;;;;;;;18.60;10.13;;;3.30;89.80;;;;;;4924588;29;20456;-52
2022/01/15 06:58:00;;;;;;;16.00;10.10;;;3.30;89.80;;;;;;4919719;29;20459;-51
2022/01/15 07:00:27;;;;;;;15.43;9.43;;;3.30;89.80;;;;;;4910023;29;20543;-52
2022/01/15 07:02:54;;;;;;;12.53;8.30;;;3.30;89.80;;;;;;4925870;29;20717;-52
2022/01/15 07:05:21;;;;;;;14.87;9.13;;;3.30;89.80;;;;;;4908594;29;20539;-52
2022/01/15 07:07:48;;;;;;;15.43;8.57;;;3.30;89.80;;;;;;4925645;29;20574;-52
2022/01/15 07:10:15;;;;;;;13.53;9.83;;;3.30;89.80;;;;;;4928316;29;20594;-51
2022/01/15 07:12:42;;;;;;;19.10;9.90;;;3.30;89.80;;;;;;4927114;29;20459;-52
2022/01/15 07:15:11;;;;;;;13.90;9.43;;;3.30;89.80;;;;;;4909867;29;20455;-52
2022/01/15 07:17:43;;;;;;;14.00;8.70;;;3.30;89.80;;;;;;4910730;29;20458;-52
2022/01/15 07:20:12;;;;;;;9.83;7.27;;;3.30;89.80;;;;;;4929920;29;20852;-52
2022/01/15 07:22:39;;;;;;;11.77;8.17;;;3.30;89.80;;;;;;4926815;29;20502;-52
2022/01/15 07:25:07;;;;;;;14.50;9.33;;;3.40;89.80;;;;;;4913955;29;20471;-52
2022/01/15 07:27:34;;;;;;;12.10;7.57;;;3.40;89.80;;;;;;4926450;29;20497;-52
2022/01/15 07:30:03;;;;;;;11.60;7.83;;;3.30;89.80;;;;;;4926399;29;21016;-52
2022/01/15 07:32:30;;;;;;;13.33;9.63;;;3.30;89.80;;;;;;4923713;29;20909;-52
2022/01/15 07:34:57;;;;;;;13.23;8.97;;;3.30;89.80;;;;;;4924306;29;20471;-52
2022/01/15 07:37:24;;;;;;;16.47;9.90;;;3.40;89.80;;;;;;4928061;29;20452;-52
2022/01/15 07:39:52;;;;;;;11.67;8.57;;;3.40;89.80;;;;;;4925719;29;20464;-52
2022/01/15 07:42:20;;;;;;;13.23;8.63;;;3.40;89.80;;;;;;4928342;29;20552;-48
2022/01/15 07:44:46;;;;;;;12.80;9.50;;;3.40;89.80;;;;;;4923383;29;20468;-47
2022/01/15 07:47:13;;;;;;;14.03;8.90;;;3.40;89.80;;;;;;4925521;29;21005;-48
2022/01/15 07:49:40;;;;;;;13.03;9.13;;;3.40;89.80;;;;;;4912955;29;20485;-48
2022/01/15 07:52:07;;;;;;;15.37;10.10;;;3.40;89.80;;;;;;4923717;29;20460;-48
2022/01/15 07:54:34;;;;;;;12.50;8.27;;;3.40;89.80;;;;;;4923855;29;20464;-48
2022/01/15 07:57:01;;;;;;;11.00;8.97;;;3.50;89.80;;;;;;4926251;29;20807;-48
2022/01/15 07:59:28;;;;;;;10.60;8.23;;;3.50;89.60;;;;;;4929012;29;20465;-48
2022/01/15 08:01:55;;;;;;;11.80;8.13;;;3.50;89.60;;;;;;4923729;29;20582;-47
2022/01/15 08:04:22;;;;;;;15.43;9.63;;;3.40;89.80;;;;;;4925777;29;20539;-48
2022/01/15 08:06:49;;;;;;;17.63;13.30;;;3.40;89.80;;;;;;4911658;29;20464;-47
2022/01/15 08:09:16;;;;;;;15.03;12.37;;;3.40;89.80;;;;;;4923302;29;20490;-49
2022/01/15 08:11:46;;;;;;;11.00;8.83;;;3.40;89.80;;;;;;4926154;29;20985;-48
2022/01/15 08:14:13;;;;;;;10.37;7.20;;;3.40;89.80;;;;;;4925270;29;20460;-48
2022/01/15 08:16:39;;;;;;;13.13;8.50;;;3.50;89.80;;;;;;4911368;29;20966;-48
2022/01/15 08:19:06;;;;;;;13.83;9.90;;;3.50;89.80;;;;;;4923743;29;20548;-47
2022/01/15 08:21:33;;;;;;;18.77;13.07;;;3.40;89.80;;;;;;4925411;29;20483;-47
2022/01/15 08:24:00;;;;;;;14.50;9.30;;;3.40;89.80;;;;;;4925251;29;20492;-48
2022/01/15 08:26:27;;;;;;;13.63;8.27;;;3.40;89.80;;;;;;4923528;29;20472;-47
2022/01/15 08:28:54;;;;;;;14.13;8.90;;;3.50;89.80;;;;;;4939743;29;20466;-48
2022/01/15 08:31:21;;;;;;;13.60;9.23;;;3.50;89.80;;;;;;4927298;29;20488;-48
2022/01/15 08:33:48;;;;;;;10.30;7.43;;;3.50;89.80;;;;;;4926329;29;20468;-48
2022/01/15 08:36:17;;;;;;;9.37;7.83;;;3.50;89.80;;;;;;4914490;29;20451;-48
2022/01/15 08:38:45;;;;;;;13.00;8.10;;;3.50;89.80;;;;;;4923176;29;20460;-48
2022/01/15 08:41:28;;;;;;;11.57;8.00;;;3.50;89.80;;;;;;4923886;29;20485;-47
2022/01/15 08:43:56;;;;;;;10.20;8.43;;;3.50;89.80;;;;;;4923820;29;20469;-47
2022/01/15 08:46:22;;;;;;;9.70;7.67;;;3.50;89.80;;;;;;4921105;29;20817;-47
2022/01/15 08:48:50;;;;;;;14.23;8.40;;;3.60;89.80;;;;;;4926795;29;20547;-47
2022/01/15 08:51:17;;;;;;;13.77;8.30;;;3.60;89.60;;;;;;4913324;29;21096;-48
2022/01/15 08:53:44;;;;;;;11.27;8.07;;;3.60;89.60;;;;;;4921739;29;20451;-49
2022/01/15 08:56:11;;;;;;;9.77;7.40;;;3.60;89.60;;;;;;4923391;29;20466;-47
2022/01/15 08:58:37;;;;;;;8.73;5.97;;;3.60;89.60;;;;;;4926558;29;20459;-48
2022/01/15 09:01:05;;;;;;;7.63;5.23;;;3.60;89.50;;;;;;4923330;29;20467;-49
2022/01/15 09:03:35;;;;;;;8.13;6.23;;;3.60;89.50;;;;;;4920950;29;20469;-49
2022/01/15 09:06:02;;;;;;;8.17;5.60;;;3.60;89.40;;;;;;4925704;29;20460;-49
2022/01/15 09:08:29;;;;;;;7.33;5.80;;;3.60;89.40;;;;;;4937738;28;20487;-48
2022/01/15 09:10:56;;;;;;;8.73;6.23;;;3.60;89.30;;;;;;4924890;29;20491;-48
2022/01/15 09:13:23;;;;;;;6.70;5.60;;;3.70;89.30;;;;;;4923316;29;20997;-48
2022/01/15 09:15:50;;;;;;;7.93;6.00;;;3.60;89.30;;;;;;4925200;29;20466;-48
2022/01/15 09:18:19;;;;;;;8.30;6.00;;;3.60;89.40;;;;;;4924795;29;20544;-48
2022/01/15 09:20:47;;;;;;;8.20;6.23;;;3.70;89.60;;;;;;4907357;29;22212;-48
2022/01/15 09:23:16;;;;;;;8.63;6.30;;;3.70;89.40;;;;;;4936168;28;20857;-48
2022/01/15 09:25:42;;;;;;;6.60;6.00;;;3.70;89.50;;;;;;4908606;29;20741;-49
2022/01/15 09:30:55;;;;;;;9.63;5.43;;;3.70;89.00;;;;;;4925403;29;20498;-48
2022/01/15 09:33:22;;;;;;;11.37;6.00;;;3.70;89.00;;;;;;4923050;29;20444;-48
2022/01/15 09:35:49;;;;;;;6.43;5.70;;;3.70;89.10;;;;;;4924307;29;21243;-48
2022/01/15 09:38:16;;;;;;;11.03;6.83;;;3.70;89.40;;;;;;4924727;29;20461;-49
2022/01/15 09:40:47;;;;;;;386.93;62.30;;;3.70;89.40;;;;;;4923457;29;20468;-48
2022/01/15 09:43:15;;;;;;;242.63;48.27;;;3.70;89.40;;;;;;4910699;29;20467;-48
2022/01/15 09:45:45;;;;;;;38.80;11.43;;;3.70;89.30;;;;;;4910446;29;20547;-49
2022/01/15 09:48:14;;;;;;;16.17;7.37;;;3.70;89.50;;;;;;4926175;29;20460;-48
2022/01/15 09:50:43;;;;;;;10.43;7.90;;;3.70;89.60;;;;;;4925372;29;20576;-48
2022/01/15 09:53:16;;;;;;;10.60;9.50;;;3.70;89.70;;;;;;4926696;29;20452;-49
2022/01/15 09:55:50;;;;;;;11.70;7.90;;;3.70;89.60;;;;;;4909728;29;20464;-49
2022/01/15 09:58:17;;;;;;;13.43;7.83;;;3.70;89.40;;;;;;4924677;29;20460;-49
2022/01/15 10:00:45;;;;;;;10.73;6.63;;;3.80;89.40;;;;;;4923820;29;20548;-49
2022/01/15 10:03:12;;;;;;;33.57;9.47;;;3.80;89.10;;;;;;4923283;29;20519;-49
2022/01/15 10:05:39;;;;;;;148.50;29.00;;;3.70;89.50;;;;;;4926688;29;20465;-48
2022/01/15 10:08:12;;;;;;;13.17;8.50;;;3.70;89.60;;;;;;4925939;29;20809;-47
2022/01/15 10:10:45;;;;;;;9.93;7.10;;;3.70;89.50;;;;;;4925005;29;20940;-49
2022/01/15 10:13:18;;;;;;;7.87;7.07;;;3.80;89.40;;;;;;4909740;29;20543;-48
2022/01/15 10:16:07;;;;;;;11.80;7.10;;;3.80;89.40;;;;;;4925246;29;20540;-48
2022/01/15 10:18:42;;;;;;;10.40;7.87;;;3.80;89.30;;;;;;4924726;29;20448;-48
2022/01/15 10:21:31;;;;;;;9.10;6.67;;;3.80;89.10;;;;;;4925072;29;20465;-49
2022/01/15 10:24:00;;;;;;;12.00;8.57;;;3.80;89.00;;;;;;4922999;29;20503;-48
2022/01/15 10:26:35;;;;;;;11.20;7.97;;;3.90;89.00;;;;;;4910887;29;20461;-49
2022/01/15 10:29:04;;;;;;;9.40;6.67;;;3.80;89.10;;;;;;4937686;28;20577;-49
2022/01/15 10:31:41;;;;;;;9.17;6.53;;;3.80;89.20;;;;;;4938479;28;20963;-49
2022/01/15 10:34:29;;;;;;;11.90;6.70;;;3.80;89.30;;;;;;4907727;29;20871;-48
2022/01/15 10:37:08;;;;;;;9.80;6.63;;;3.80;89.50;;;;;;4927229;29;20816;-49
2022/01/15 10:39:35;;;;;;;9.17;6.10;;;3.90;89.20;;;;;;4933391;29;20458;-49
2022/01/15 10:42:15;;;;;;;11.83;7.50;;;3.90;89.20;;;;;;4927849;29;20462;-49
2022/01/15 10:44:45;;;;;;;10.87;8.60;;;3.90;89.20;;;;;;4930055;29;20462;-48
2022/01/15 10:47:16;;;;;;;10.13;8.87;;;3.90;89.10;;;;;;4925571;29;20468;-48
2022/01/15 10:49:43;;;;;;;8.60;7.27;;;3.90;89.10;;;;;;4922224;29;20467;-48
2022/01/15 10:52:15;;;;;;;10.10;7.00;;;3.90;89.00;;;;;;4926131;29;20523;-48
2022/01/15 10:55:09;;;;;;;9.37;7.70;;;4.00;88.90;;;;;;4929456;29;20466;-49
2022/01/15 10:57:53;;;;;;;11.43;6.40;;;4.00;88.80;;;;;;4926084;29;20461;-48
2022/01/15 11:00:40;;;;;;;7.43;6.80;;;4.00;88.80;;;;;;4925045;29;20464;-49
2022/01/15 11:03:10;;;;;;;7.33;5.90;;;4.10;88.50;;;;;;4926266;29;20462;-48
2022/01/15 11:05:46;;;;;;;7.50;6.80;;;4.10;88.50;;;;;;4913711;29;20474;-49
2022/01/15 11:08:18;;;;;;;11.50;7.20;;;4.10;88.50;;;;;;4929708;29;21027;-48
2022/01/15 11:11:14;;;;;;;12.13;7.33;;;4.10;88.60;;;;;;4928457;29;20482;-47
2022/01/15 11:13:45;;;;;;;7.93;6.57;;;4.10;88.70;;;;;;4930600;29;20456;-49
2022/01/15 11:16:17;;;;;;;8.90;7.27;;;4.10;88.80;;;;;;4912444;29;20942;-49
2022/01/15 11:18:49;;;;;;;10.80;6.97;;;4.10;88.80;;;;;;4927778;29;20498;-48
2022/01/15 11:21:18;;;;;;;8.93;7.00;;;4.20;89.00;;;;;;4925595;29;20472;-48
2022/01/15 11:23:46;;;;;;;9.17;6.80;;;4.20;88.70;;;;;;4910763;29;21034;-48
2022/01/15 11:26:26;;;;;;;12.23;8.03;;;4.20;88.80;;;;;;4924308;29;21025;-49
2022/01/15 11:28:57;;;;;;;9.20;7.93;;;4.20;88.70;;;;;;4924946;29;21583;-49
2022/01/15 11:31:30;;;;;;;9.60;7.43;;;4.20;88.70;;;;;;4923641;29;20494;-49
2022/01/15 11:34:04;;;;;;;9.30;7.47;;;4.20;88.70;;;;;;4924419;29;20456;-49
2022/01/15 11:36:33;;;;;;;12.20;8.53;;;4.20;88.80;;;;;;4942359;28;20479;-48
2022/01/15 11:39:08;;;;;;;8.83;7.70;;;4.20;88.70;;;;;;4926088;29;21405;-48
2022/01/15 11:41:37;;;;;;;12.23;8.37;;;4.20;88.60;;;;;;4929730;29;20460;-49
2022/01/15 11:44:06;;;;;;;11.80;8.90;;;4.10;88.70;;;;;;4928236;29;20805;-48
2022/01/15 11:46:48;;;;;;;10.90;8.97;;;4.10;88.80;;;;;;4924055;29;20821;-48
2022/01/15 11:49:23;;;;;;;11.20;7.03;;;4.20;88.70;;;;;;4925970;29;20827;-48
2022/01/15 11:52:22;;;;;;;13.50;8.73;;;4.20;88.50;;;;;;4923976;29;20599;-48
2022/01/15 11:54:54;;;;;;;10.10;8.57;;;4.10;88.50;;;;;;4925518;29;20463;-49
2022/01/15 11:57:28;;;;;;;12.50;8.30;;;4.20;88.50;;;;;;4925957;29;20846;-48
2022/01/15 12:00:00;;;;;;;11.80;9.83;;;4.20;88.50;;;;;;4924311;29;20464;-49
2022/01/15 12:02:41;;;;;;;11.63;9.30;;;4.20;88.60;;;;;;4913282;29;20961;-48
2022/01/15 12:05:19;;;;;;;16.63;12.13;;;4.20;88.80;;;;;;4928638;29;20812;-48
2022/01/15 12:08:11;;;;;;;32.97;21.47;;;4.20;88.70;;;;;;4928293;29;20892;-48
2022/01/15 12:10:40;;;;;;;34.80;23.00;;;4.20;88.70;;;;;;4925706;29;20488;-49
2022/01/15 12:13:21;;;;;;;81.73;37.77;;;4.20;88.60;;;;;;4924378;29;20461;-48
2022/01/15 12:16:10;;;;;;;32.20;17.13;;;4.20;88.70;;;;;;4922219;29;20460;-48
2022/01/15 12:18:48;;;;;;;51.60;29.40;;;4.10;88.80;;;;;;4900744;29;20811;-49
2022/01/15 12:21:54;;;;;;;111.80;49.90;;;4.10;88.80;;;;;;4910981;29;20464;-49
2022/01/15 12:24:34;;;;;;;77.07;38.03;;;4.10;89.00;;;;;;4924380;29;21031;-48
2022/01/15 12:27:06;;;;;;;42.30;25.40;;;4.10;89.10;;;;;;4927329;29;20460;-49
2022/01/15 12:29:33;;;;;;;33.60;18.80;;;4.20;88.70;;;;;;4923373;29;20570;-49
2022/01/15 12:32:00;;;;;;;17.90;12.00;;;4.20;89.00;;;;;;4908581;29;20491;-49
2022/01/15 12:34:28;;;;;;;20.70;14.10;;;4.20;89.00;;;;;;4921481;29;20472;-49
2022/01/15 12:36:55;;;;;;;19.90;13.40;;;4.20;88.80;;;;;;4925414;29;20478;-48
2022/01/15 12:39:36;;;;;;;41.47;19.47;;;4.20;88.80;;;;;;4924306;29;20459;-48
2022/01/15 12:42:05;;;;;;;108.63;38.83;;;4.20;88.80;;;;;;4927427;29;20456;-49
2022/01/15 12:44:40;;;;;;;181.60;60.90;;;4.20;89.00;;;;;;4912162;29;20463;-49
2022/01/15 12:47:07;;;;;;;82.40;31.23;;;4.20;89.00;;;;;;4923546;29;20455;-52
2022/01/15 12:49:40;;;;;;;54.13;24.97;;;4.20;89.00;;;;;;4925479;29;20456;-52
2022/01/15 12:52:28;;;;;;;20.87;11.47;;;4.30;88.90;;;;;;4925566;29;20595;-52
2022/01/15 12:54:57;;;;;;;17.30;11.60;;;4.30;88.70;;;;;;4922940;29;20531;-52
2022/01/15 12:57:44;;;;;;;13.93;10.17;;;4.30;88.60;;;;;;4923889;29;20458;-52
2022/01/15 13:00:20;;;;;;;15.93;11.83;;;4.40;88.50;;;;;;4923835;29;21005;-52
2022/01/15 13:02:48;;;;;;;15.10;11.03;;;4.30;88.40;;;;;;4925455;29;20462;-53
2022/01/15 13:05:18;;;;;;;17.80;12.30;;;4.40;88.60;;;;;;4917941;29;20457;-52
2022/01/15 13:07:51;;;;;;;16.67;11.97;;;4.30;88.40;;;;;;4925223;29;20456;-53
2022/01/15 13:11:04;;;;;;;18.60;11.57;;;4.30;88.60;;;;;;4922479;29;20468;-52
2022/01/15 13:13:40;;;;;;;16.03;13.87;;;4.30;88.40;;;;;;4928196;29;20836;-52
2022/01/15 13:16:23;;;;;;;20.00;14.60;;;4.30;88.40;;;;;;4926329;29;20455;-51